sensor_id;sensor_type;location;lat;lon;timestamp;P1;durP1;ratioP1;P2;durP2;ratioP2
65469;SDS011;52067;50.710;14.492;2024-01-10T00:00:07;95.90;;;32.40;;
65469;SDS011;52067;50.710;14.492;2024-01-10T00:02:34;115.45;;;36.20;;
65469;SDS011;52067;50.710;14.492;2024-01-10T00:04:59;134.68;;;40.80;;
65469;SDS011;52067;50.710;14.492;2024-01-10T00:07:25;90.45;;;30.15;;
65469;SDS011;52067;50.710;14.492;2024-01-10T00:09:50;112.95;;;33.47;;
65469;SDS011;52067;50.710;14.492;2024-01-10T00:12:15;144.68;;;38.67;;
65469;SDS011;52067;50.710;14.492;2024-01-10T00:14:41;114.78;;;34.78;;
65469;SDS011;52067;50.710;14.492;2024-01-10T00:17:06;121.82;;;34.08;;
65469;SDS011;52067;50.710;14.492;2024-01-10T00:19:32;114.35;;;33.95;;
65469;SDS011;52067;50.710;14.492;2024-01-10T00:21:58;116.80;;;35.75;;
65469;SDS011;52067;50.710;14.492;2024-01-10T00:24:23;135.13;;;38.15;;
65469;SDS011;52067;50.710;14.492;2024-01-10T00:26:49;93.55;;;29.52;;
65469;SDS011;52067;50.710;14.492;2024-01-10T00:29:14;120.25;;;37.42;;
65469;SDS011;52067;50.710;14.492;2024-01-10T00:31:40;102.45;;;31.63;;
65469;SDS011;52067;50.710;14.492;2024-01-10T00:34:05;111.60;;;32.60;;
65469;SDS011;52067;50.710;14.492;2024-01-10T00:36:31;121.22;;;34.35;;
65469;SDS011;52067;50.710;14.492;2024-01-10T00:38:56;102.78;;;32.75;;
65469;SDS011;52067;50.710;14.492;2024-01-10T00:41:22;106.88;;;32.78;;
65469;SDS011;52067;50.710;14.492;2024-01-10T00:43:47;118.53;;;35.13;;
65469;SDS011;52067;50.710;14.492;2024-01-10T00:46:13;88.90;;;28.73;;
65469;SDS011;52067;50.710;14.492;2024-01-10T00:48:38;80.28;;;23.92;;
65469;SDS011;52067;50.710;14.492;2024-01-10T00:51:04;107.68;;;31.73;;
65469;SDS011;52067;50.710;14.492;2024-01-10T00:53:34;75.22;;;22.52;;
65469;SDS011;52067;50.710;14.492;2024-01-10T00:55:59;87.05;;;30.67;;
65469;SDS011;52067;50.710;14.492;2024-01-10T00:58:25;92.60;;;29.90;;
65469;SDS011;52067;50.710;14.492;2024-01-10T01:00:50;81.45;;;26.25;;
65469;SDS011;52067;50.710;14.492;2024-01-10T01:03:16;84.88;;;28.85;;
65469;SDS011;52067;50.710;14.492;2024-01-10T01:05:41;53.97;;;19.75;;
65469;SDS011;52067;50.710;14.492;2024-01-10T01:08:07;78.25;;;26.40;;
65469;SDS011;52067;50.710;14.492;2024-01-10T01:10:33;83.68;;;28.52;;
65469;SDS011;52067;50.710;14.492;2024-01-10T01:12:59;82.68;;;25.05;;
65469;SDS011;52067;50.710;14.492;2024-01-10T01:15:24;68.10;;;23.70;;
65469;SDS011;52067;50.710;14.492;2024-01-10T01:17:50;69.22;;;21.15;;
65469;SDS011;52067;50.710;14.492;2024-01-10T01:20:15;67.00;;;23.67;;
65469;SDS011;52067;50.710;14.492;2024-01-10T01:22:41;64.75;;;22.55;;
65469;SDS011;52067;50.710;14.492;2024-01-10T01:25:06;54.10;;;19.08;;
65469;SDS011;52067;50.710;14.492;2024-01-10T01:27:32;75.10;;;23.77;;
65469;SDS011;52067;50.710;14.492;2024-01-10T01:29:58;52.95;;;18.15;;
65469;SDS011;52067;50.710;14.492;2024-01-10T01:32:23;74.78;;;24.05;;
65469;SDS011;52067;50.710;14.492;2024-01-10T01:34:49;77.50;;;24.23;;
65469;SDS011;52067;50.710;14.492;2024-01-10T01:37:14;94.88;;;25.65;;
65469;SDS011;52067;50.710;14.492;2024-01-10T01:39:40;82.93;;;27.25;;
65469;SDS011;52067;50.710;14.492;2024-01-10T01:42:05;71.70;;;25.60;;
65469;SDS011;52067;50.710;14.492;2024-01-10T01:44:31;58.13;;;21.00;;
65469;SDS011;52067;50.710;14.492;2024-01-10T01:46:57;88.43;;;23.58;;
65469;SDS011;52067;50.710;14.492;2024-01-10T01:49:22;63.85;;;22.92;;
65469;SDS011;52067;50.710;14.492;2024-01-10T01:51:50;50.88;;;19.10;;
65469;SDS011;52067;50.710;14.492;2024-01-10T01:54:16;58.90;;;19.25;;
65469;SDS011;52067;50.710;14.492;2024-01-10T01:56:42;62.90;;;21.65;;
65469;SDS011;52067;50.710;14.492;2024-01-10T01:59:09;64.38;;;19.52;;
65469;SDS011;52067;50.710;14.492;2024-01-10T02:01:35;77.40;;;20.48;;
65469;SDS011;52067;50.710;14.492;2024-01-10T02:04:01;43.63;;;14.88;;
65469;SDS011;52067;50.710;14.492;2024-01-10T02:06:26;60.28;;;21.55;;
65469;SDS011;52067;50.710;14.492;2024-01-10T02:08:52;99.45;;;22.63;;
65469;SDS011;52067;50.710;14.492;2024-01-10T02:11:17;80.00;;;23.50;;
65469;SDS011;52067;50.710;14.492;2024-01-10T02:13:44;90.50;;;24.13;;
65469;SDS011;52067;50.710;14.492;2024-01-10T02:16:09;79.97;;;20.23;;
65469;SDS011;52067;50.710;14.492;2024-01-10T02:18:35;79.93;;;24.58;;
65469;SDS011;52067;50.710;14.492;2024-01-10T02:21:01;91.10;;;26.38;;
65469;SDS011;52067;50.710;14.492;2024-01-10T02:23:26;69.43;;;18.73;;
65469;SDS011;52067;50.710;14.492;2024-01-10T02:25:52;74.97;;;23.30;;
65469;SDS011;52067;50.710;14.492;2024-01-10T02:28:17;95.95;;;27.77;;
65469;SDS011;52067;50.710;14.492;2024-01-10T02:30:43;75.95;;;24.55;;
65469;SDS011;52067;50.710;14.492;2024-01-10T02:33:08;65.00;;;18.60;;
65469;SDS011;52067;50.710;14.492;2024-01-10T02:35:34;59.92;;;21.23;;
65469;SDS011;52067;50.710;14.492;2024-01-10T02:37:59;92.95;;;27.45;;
65469;SDS011;52067;50.710;14.492;2024-01-10T02:40:25;62.75;;;20.98;;
65469;SDS011;52067;50.710;14.492;2024-01-10T02:42:50;76.03;;;21.90;;
65469;SDS011;52067;50.710;14.492;2024-01-10T02:45:16;61.83;;;14.73;;
65469;SDS011;52067;50.710;14.492;2024-01-10T02:47:42;78.78;;;24.58;;
65469;SDS011;52067;50.710;14.492;2024-01-10T02:50:07;71.80;;;22.60;;
65469;SDS011;52067;50.710;14.492;2024-01-10T02:52:33;83.22;;;27.55;;
65469;SDS011;52067;50.710;14.492;2024-01-10T02:54:58;89.53;;;24.13;;
65469;SDS011;52067;50.710;14.492;2024-01-10T02:57:24;73.60;;;23.17;;
65469;SDS011;52067;50.710;14.492;2024-01-10T02:59:49;83.53;;;24.88;;
65469;SDS011;52067;50.710;14.492;2024-01-10T03:02:15;50.10;;;19.73;;
65469;SDS011;52067;50.710;14.492;2024-01-10T03:04:41;53.88;;;16.27;;
65469;SDS011;52067;50.710;14.492;2024-01-10T03:07:07;51.35;;;17.75;;
65469;SDS011;52067;50.710;14.492;2024-01-10T03:09:32;60.55;;;19.70;;
65469;SDS011;52067;50.710;14.492;2024-01-10T03:11:58;77.88;;;24.20;;
65469;SDS011;52067;50.710;14.492;2024-01-10T03:14:23;73.40;;;23.17;;
65469;SDS011;52067;50.710;14.492;2024-01-10T03:16:49;71.45;;;23.35;;
65469;SDS011;52067;50.710;14.492;2024-01-10T03:19:14;78.70;;;26.05;;
65469;SDS011;52067;50.710;14.492;2024-01-10T03:21:40;100.95;;;27.88;;
65469;SDS011;52067;50.710;14.492;2024-01-10T03:24:05;93.70;;;24.50;;
65469;SDS011;52067;50.710;14.492;2024-01-10T03:26:31;86.47;;;24.02;;
65469;SDS011;52067;50.710;14.492;2024-01-10T03:28:57;95.82;;;23.10;;
65469;SDS011;52067;50.710;14.492;2024-01-10T03:31:22;45.38;;;12.55;;
65469;SDS011;52067;50.710;14.492;2024-01-10T03:33:48;71.38;;;25.80;;
65469;SDS011;52067;50.710;14.492;2024-01-10T03:36:17;92.95;;;24.90;;
65469;SDS011;52067;50.710;14.492;2024-01-10T03:38:43;56.90;;;19.70;;
65469;SDS011;52067;50.710;14.492;2024-01-10T03:41:13;96.90;;;24.08;;
65469;SDS011;52067;50.710;14.492;2024-01-10T03:43:43;86.22;;;24.90;;
65469;SDS011;52067;50.710;14.492;2024-01-10T03:46:09;102.00;;;26.40;;
65469;SDS011;52067;50.710;14.492;2024-01-10T03:48:35;67.75;;;22.83;;
65469;SDS011;52067;50.710;14.492;2024-01-10T03:51:01;124.90;;;31.23;;
65469;SDS011;52067;50.710;14.492;2024-01-10T03:53:26;118.22;;;28.70;;
65469;SDS011;52067;50.710;14.492;2024-01-10T03:55:52;89.60;;;26.65;;
65469;SDS011;52067;50.710;14.492;2024-01-10T03:58:17;95.78;;;25.58;;
65469;SDS011;52067;50.710;14.492;2024-01-10T04:00:43;57.35;;;19.92;;
65469;SDS011;52067;50.710;14.492;2024-01-10T04:03:08;67.88;;;22.38;;
65469;SDS011;52067;50.710;14.492;2024-01-10T04:05:34;95.18;;;24.48;;
65469;SDS011;52067;50.710;14.492;2024-01-10T04:07:59;81.47;;;25.73;;
65469;SDS011;52067;50.710;14.492;2024-01-10T04:10:25;68.65;;;20.67;;
65469;SDS011;52067;50.710;14.492;2024-01-10T04:12:50;105.30;;;25.50;;
65469;SDS011;52067;50.710;14.492;2024-01-10T04:15:16;45.17;;;16.25;;
65469;SDS011;52067;50.710;14.492;2024-01-10T04:17:42;76.18;;;19.83;;
65469;SDS011;52067;50.710;14.492;2024-01-10T04:20:08;66.82;;;23.00;;
65469;SDS011;52067;50.710;14.492;2024-01-10T04:22:34;71.60;;;22.52;;
65469;SDS011;52067;50.710;14.492;2024-01-10T04:25:00;64.45;;;23.95;;
65469;SDS011;52067;50.710;14.492;2024-01-10T04:27:26;76.30;;;24.13;;
65469;SDS011;52067;50.710;14.492;2024-01-10T04:29:53;54.33;;;20.55;;
65469;SDS011;52067;50.710;14.492;2024-01-10T04:32:19;59.67;;;17.60;;
65469;SDS011;52067;50.710;14.492;2024-01-10T04:34:44;65.75;;;21.50;;
65469;SDS011;52067;50.710;14.492;2024-01-10T04:37:10;41.13;;;14.63;;
65469;SDS011;52067;50.710;14.492;2024-01-10T04:39:35;73.05;;;21.10;;
65469;SDS011;52067;50.710;14.492;2024-01-10T04:42:02;76.50;;;23.10;;
65469;SDS011;52067;50.710;14.492;2024-01-10T04:44:28;65.75;;;20.58;;
65469;SDS011;52067;50.710;14.492;2024-01-10T04:46:54;67.57;;;22.30;;
65469;SDS011;52067;50.710;14.492;2024-01-10T04:49:19;73.53;;;25.08;;
65469;SDS011;52067;50.710;14.492;2024-01-10T04:51:46;69.85;;;23.15;;
65469;SDS011;52067;50.710;14.492;2024-01-10T04:54:11;52.63;;;16.35;;
65469;SDS011;52067;50.710;14.492;2024-01-10T04:56:37;69.68;;;21.35;;
65469;SDS011;52067;50.710;14.492;2024-01-10T04:59:03;54.88;;;18.65;;
65469;SDS011;52067;50.710;14.492;2024-01-10T05:01:28;57.83;;;19.58;;
65469;SDS011;52067;50.710;14.492;2024-01-10T05:03:54;56.15;;;19.27;;
65469;SDS011;52067;50.710;14.492;2024-01-10T05:06:19;63.53;;;19.77;;
65469;SDS011;52067;50.710;14.492;2024-01-10T05:08:45;58.20;;;18.75;;
65469;SDS011;52067;50.710;14.492;2024-01-10T05:11:10;70.00;;;22.80;;
65469;SDS011;52067;50.710;14.492;2024-01-10T05:13:36;35.25;;;13.73;;
65469;SDS011;52067;50.710;14.492;2024-01-10T05:16:02;56.92;;;21.33;;
65469;SDS011;52067;50.710;14.492;2024-01-10T05:18:27;38.90;;;12.98;;
65469;SDS011;52067;50.710;14.492;2024-01-10T05:20:53;61.65;;;21.25;;
65469;SDS011;52067;50.710;14.492;2024-01-10T05:23:18;53.67;;;19.90;;
65469;SDS011;52067;50.710;14.492;2024-01-10T05:25:43;54.55;;;19.83;;
65469;SDS011;52067;50.710;14.492;2024-01-10T05:28:09;61.17;;;20.88;;
65469;SDS011;52067;50.710;14.492;2024-01-10T05:30:34;56.00;;;18.08;;
65469;SDS011;52067;50.710;14.492;2024-01-10T05:33:00;37.75;;;14.57;;
65469;SDS011;52067;50.710;14.492;2024-01-10T05:35:26;64.38;;;17.30;;
65469;SDS011;52067;50.710;14.492;2024-01-10T05:37:51;51.95;;;18.98;;
65469;SDS011;52067;50.710;14.492;2024-01-10T05:40:17;54.00;;;19.80;;
65469;SDS011;52067;50.710;14.492;2024-01-10T05:42:43;57.92;;;19.02;;
65469;SDS011;52067;50.710;14.492;2024-01-10T05:45:12;66.07;;;21.42;;
65469;SDS011;52067;50.710;14.492;2024-01-10T05:47:37;56.45;;;21.63;;
65469;SDS011;52067;50.710;14.492;2024-01-10T05:50:03;57.55;;;19.30;;
65469;SDS011;52067;50.710;14.492;2024-01-10T05:52:32;72.63;;;22.50;;
65469;SDS011;52067;50.710;14.492;2024-01-10T05:54:58;89.90;;;24.13;;
65469;SDS011;52067;50.710;14.492;2024-01-10T05:57:24;105.07;;;26.23;;
65469;SDS011;52067;50.710;14.492;2024-01-10T05:59:49;76.72;;;22.88;;
65469;SDS011;52067;50.710;14.492;2024-01-10T06:02:17;61.25;;;22.17;;
65469;SDS011;52067;50.710;14.492;2024-01-10T06:04:42;78.78;;;21.95;;
65469;SDS011;52067;50.710;14.492;2024-01-10T06:07:08;69.70;;;22.30;;
65469;SDS011;52067;50.710;14.492;2024-01-10T06:09:33;82.40;;;24.65;;
65469;SDS011;52067;50.710;14.492;2024-01-10T06:11:59;61.08;;;21.17;;
65469;SDS011;52067;50.710;14.492;2024-01-10T06:14:24;66.75;;;21.63;;
65469;SDS011;52067;50.710;14.492;2024-01-10T06:16:50;58.80;;;20.13;;
65469;SDS011;52067;50.710;14.492;2024-01-10T06:19:15;56.50;;;20.60;;
65469;SDS011;52067;50.710;14.492;2024-01-10T06:21:40;58.38;;;21.65;;
65469;SDS011;52067;50.710;14.492;2024-01-10T06:24:07;61.70;;;19.13;;
65469;SDS011;52067;50.710;14.492;2024-01-10T06:26:33;40.33;;;17.60;;
65469;SDS011;52067;50.710;14.492;2024-01-10T06:28:58;62.38;;;21.20;;
65469;SDS011;52067;50.710;14.492;2024-01-10T06:31:23;90.00;;;26.75;;
65469;SDS011;52067;50.710;14.492;2024-01-10T06:33:49;68.45;;;23.85;;
65469;SDS011;52067;50.710;14.492;2024-01-10T06:36:14;72.57;;;26.08;;
65469;SDS011;52067;50.710;14.492;2024-01-10T06:38:40;80.45;;;26.55;;
65469;SDS011;52067;50.710;14.492;2024-01-10T06:41:08;71.97;;;26.40;;
65469;SDS011;52067;50.710;14.492;2024-01-10T06:43:35;57.83;;;22.67;;
65469;SDS011;52067;50.710;14.492;2024-01-10T06:46:01;76.10;;;26.60;;
65469;SDS011;52067;50.710;14.492;2024-01-10T06:48:28;87.40;;;26.08;;
65469;SDS011;52067;50.710;14.492;2024-01-10T06:50:54;57.42;;;18.17;;
65469;SDS011;52067;50.710;14.492;2024-01-10T06:53:20;61.58;;;20.90;;
65469;SDS011;52067;50.710;14.492;2024-01-10T06:55:46;74.80;;;23.55;;
65469;SDS011;52067;50.710;14.492;2024-01-10T06:58:14;72.85;;;24.65;;
65469;SDS011;52067;50.710;14.492;2024-01-10T07:00:46;80.88;;;26.52;;
65469;SDS011;52067;50.710;14.492;2024-01-10T07:03:12;36.50;;;13.02;;
65469;SDS011;52067;50.710;14.492;2024-01-10T07:05:37;64.30;;;21.75;;
65469;SDS011;52067;50.710;14.492;2024-01-10T07:08:03;47.97;;;17.17;;
65469;SDS011;52067;50.710;14.492;2024-01-10T07:10:29;85.78;;;26.85;;
65469;SDS011;52067;50.710;14.492;2024-01-10T07:12:54;45.80;;;18.05;;
65469;SDS011;52067;50.710;14.492;2024-01-10T07:15:21;43.50;;;17.88;;
65469;SDS011;52067;50.710;14.492;2024-01-10T07:17:47;21.30;;;10.35;;
65469;SDS011;52067;50.710;14.492;2024-01-10T07:20:12;61.95;;;23.80;;
65469;SDS011;52067;50.710;14.492;2024-01-10T07:22:38;86.85;;;27.65;;
65469;SDS011;52067;50.710;14.492;2024-01-10T07:25:09;95.63;;;28.33;;
65469;SDS011;52067;50.710;14.492;2024-01-10T07:27:35;63.53;;;26.60;;
65469;SDS011;52067;50.710;14.492;2024-01-10T07:30:03;65.45;;;23.98;;
65469;SDS011;52067;50.710;14.492;2024-01-10T07:32:35;86.75;;;29.88;;
65469;SDS011;52067;50.710;14.492;2024-01-10T07:35:01;91.80;;;32.05;;
65469;SDS011;52067;50.710;14.492;2024-01-10T07:37:26;52.42;;;21.45;;
65469;SDS011;52067;50.710;14.492;2024-01-10T07:39:52;95.80;;;26.63;;
65469;SDS011;52067;50.710;14.492;2024-01-10T07:42:19;47.00;;;20.27;;
65469;SDS011;52067;50.710;14.492;2024-01-10T07:44:44;49.67;;;19.33;;
65469;SDS011;52067;50.710;14.492;2024-01-10T07:47:09;62.88;;;22.17;;
65469;SDS011;52067;50.710;14.492;2024-01-10T07:49:35;17.80;;;10.52;;
65469;SDS011;52067;50.710;14.492;2024-01-10T07:52:02;76.60;;;20.30;;
65469;SDS011;52067;50.710;14.492;2024-01-10T07:54:29;78.65;;;27.27;;
65469;SDS011;52067;50.710;14.492;2024-01-10T07:56:57;65.88;;;20.58;;
65469;SDS011;52067;50.710;14.492;2024-01-10T07:59:23;69.03;;;24.90;;
65469;SDS011;52067;50.710;14.492;2024-01-10T08:01:55;170.15;;;40.97;;
65469;SDS011;52067;50.710;14.492;2024-01-10T08:04:25;113.38;;;34.60;;
65469;SDS011;52067;50.710;14.492;2024-01-10T08:06:51;124.88;;;38.20;;
65469;SDS011;52067;50.710;14.492;2024-01-10T08:09:16;97.53;;;34.38;;
65469;SDS011;52067;50.710;14.492;2024-01-10T08:11:44;50.15;;;20.40;;
65469;SDS011;52067;50.710;14.492;2024-01-10T08:14:10;69.53;;;27.10;;
65469;SDS011;52067;50.710;14.492;2024-01-10T08:16:35;79.63;;;22.95;;
65469;SDS011;52067;50.710;14.492;2024-01-10T08:19:01;76.50;;;27.88;;
65469;SDS011;52067;50.710;14.492;2024-01-10T08:21:26;56.53;;;21.50;;
65469;SDS011;52067;50.710;14.492;2024-01-10T08:23:51;26.25;;;12.23;;
65469;SDS011;52067;50.710;14.492;2024-01-10T08:26:17;64.53;;;21.98;;
65469;SDS011;52067;50.710;14.492;2024-01-10T08:28:42;89.53;;;26.38;;
65469;SDS011;52067;50.710;14.492;2024-01-10T08:31:08;51.65;;;17.95;;
65469;SDS011;52067;50.710;14.492;2024-01-10T08:33:33;25.38;;;13.75;;
65469;SDS011;52067;50.710;14.492;2024-01-10T08:35:59;82.15;;;25.38;;
65469;SDS011;52067;50.710;14.492;2024-01-10T08:38:24;60.92;;;21.70;;
65469;SDS011;52067;50.710;14.492;2024-01-10T08:40:50;44.78;;;18.25;;
65469;SDS011;52067;50.710;14.492;2024-01-10T08:43:15;87.50;;;29.15;;
65469;SDS011;52067;50.710;14.492;2024-01-10T08:45:40;99.03;;;31.45;;
65469;SDS011;52067;50.710;14.492;2024-01-10T08:48:06;49.75;;;20.10;;
65469;SDS011;52067;50.710;14.492;2024-01-10T08:50:32;60.60;;;19.00;;
65469;SDS011;52067;50.710;14.492;2024-01-10T08:52:59;89.13;;;31.13;;
65469;SDS011;52067;50.710;14.492;2024-01-10T08:55:25;88.45;;;30.42;;
65469;SDS011;52067;50.710;14.492;2024-01-10T08:57:51;90.57;;;29.35;;
65469;SDS011;52067;50.710;14.492;2024-01-10T09:00:16;102.85;;;31.90;;
65469;SDS011;52067;50.710;14.492;2024-01-10T09:02:42;100.93;;;32.03;;
65469;SDS011;52067;50.710;14.492;2024-01-10T09:05:07;107.40;;;37.38;;
65469;SDS011;52067;50.710;14.492;2024-01-10T09:07:35;122.72;;;42.10;;
65469;SDS011;52067;50.710;14.492;2024-01-10T09:10:01;96.97;;;32.75;;
65469;SDS011;52067;50.710;14.492;2024-01-10T09:12:26;114.50;;;37.28;;
65469;SDS011;52067;50.710;14.492;2024-01-10T09:14:53;104.38;;;33.42;;
65469;SDS011;52067;50.710;14.492;2024-01-10T09:17:19;115.65;;;35.03;;
65469;SDS011;52067;50.710;14.492;2024-01-10T09:19:45;103.05;;;33.20;;
65469;SDS011;52067;50.710;14.492;2024-01-10T09:22:10;91.05;;;31.88;;
65469;SDS011;52067;50.710;14.492;2024-01-10T09:24:35;46.00;;;19.27;;
65469;SDS011;52067;50.710;14.492;2024-01-10T09:27:01;113.05;;;37.58;;
65469;SDS011;52067;50.710;14.492;2024-01-10T09:29:26;80.57;;;29.27;;
65469;SDS011;52067;50.710;14.492;2024-01-10T09:31:52;111.30;;;38.33;;
65469;SDS011;52067;50.710;14.492;2024-01-10T09:34:17;116.50;;;38.20;;
65469;SDS011;52067;50.710;14.492;2024-01-10T09:36:43;81.82;;;29.70;;
65469;SDS011;52067;50.710;14.492;2024-01-10T09:39:09;120.28;;;36.60;;
65469;SDS011;52067;50.710;14.492;2024-01-10T09:41:40;89.85;;;30.73;;
65469;SDS011;52067;50.710;14.492;2024-01-10T09:44:15;114.25;;;36.53;;
65469;SDS011;52067;50.710;14.492;2024-01-10T09:46:43;115.60;;;36.50;;
65469;SDS011;52067;50.710;14.492;2024-01-10T09:49:13;74.60;;;28.45;;
65469;SDS011;52067;50.710;14.492;2024-01-10T09:51:39;109.95;;;34.25;;
65469;SDS011;52067;50.710;14.492;2024-01-10T09:54:04;79.30;;;23.65;;
65469;SDS011;52067;50.710;14.492;2024-01-10T09:56:30;99.75;;;32.05;;
65469;SDS011;52067;50.710;14.492;2024-01-10T09:58:58;87.65;;;30.25;;
65469;SDS011;52067;50.710;14.492;2024-01-10T10:01:24;95.72;;;31.30;;
65469;SDS011;52067;50.710;14.492;2024-01-10T10:03:50;88.63;;;31.45;;
65469;SDS011;52067;50.710;14.492;2024-01-10T10:06:16;84.50;;;28.27;;
65469;SDS011;52067;50.710;14.492;2024-01-10T10:08:41;80.50;;;29.90;;
65469;SDS011;52067;50.710;14.492;2024-01-10T10:11:07;78.53;;;27.45;;
65469;SDS011;52067;50.710;14.492;2024-01-10T10:13:38;75.50;;;26.65;;
65469;SDS011;52067;50.710;14.492;2024-01-10T10:16:06;72.55;;;26.83;;
65469;SDS011;52067;50.710;14.492;2024-01-10T10:18:35;74.93;;;27.08;;
65469;SDS011;52067;50.710;14.492;2024-01-10T10:21:10;76.72;;;29.42;;
65469;SDS011;52067;50.710;14.492;2024-01-10T10:23:37;68.30;;;25.58;;
65469;SDS011;52067;50.710;14.492;2024-01-10T10:26:10;75.57;;;29.27;;
65469;SDS011;52067;50.710;14.492;2024-01-10T10:28:39;67.97;;;25.30;;
65469;SDS011;52067;50.710;14.492;2024-01-10T10:31:05;72.22;;;26.77;;
65469;SDS011;52067;50.710;14.492;2024-01-10T10:33:32;73.25;;;28.45;;
65469;SDS011;52067;50.710;14.492;2024-01-10T10:35:58;75.60;;;28.45;;
65469;SDS011;52067;50.710;14.492;2024-01-10T10:38:24;70.82;;;26.95;;
65469;SDS011;52067;50.710;14.492;2024-01-10T10:40:49;81.00;;;31.20;;
65469;SDS011;52067;50.710;14.492;2024-01-10T10:43:16;67.88;;;27.00;;
65469;SDS011;52067;50.710;14.492;2024-01-10T10:45:47;62.38;;;25.30;;
65469;SDS011;52067;50.710;14.492;2024-01-10T10:48:14;58.33;;;25.58;;
65469;SDS011;52067;50.710;14.492;2024-01-10T10:50:42;63.28;;;25.48;;
65469;SDS011;52067;50.710;14.492;2024-01-10T10:53:22;54.92;;;24.08;;
65469;SDS011;52067;50.710;14.492;2024-01-10T10:55:50;56.63;;;23.52;;
65469;SDS011;52067;50.710;14.492;2024-01-10T10:58:17;49.92;;;22.48;;
65469;SDS011;52067;50.710;14.492;2024-01-10T11:00:42;48.55;;;21.90;;
65469;SDS011;52067;50.710;14.492;2024-01-10T11:03:10;49.63;;;19.70;;
65469;SDS011;52067;50.710;14.492;2024-01-10T11:05:36;55.80;;;21.75;;
65469;SDS011;52067;50.710;14.492;2024-01-10T11:08:05;54.83;;;22.33;;
65469;SDS011;52067;50.710;14.492;2024-01-10T11:10:36;76.10;;;28.13;;
65469;SDS011;52067;50.710;14.492;2024-01-10T11:18:29;54.03;;;22.00;;
65469;SDS011;52067;50.710;14.492;2024-01-10T11:24:01;49.10;;;20.25;;
65469;SDS011;52067;50.710;14.492;2024-01-10T11:26:28;59.58;;;21.77;;
65469;SDS011;52067;50.710;14.492;2024-01-10T11:28:53;47.75;;;19.40;;
65469;SDS011;52067;50.710;14.492;2024-01-10T11:31:29;37.22;;;15.25;;
65469;SDS011;52067;50.710;14.492;2024-01-10T11:33:55;34.63;;;15.05;;
65469;SDS011;52067;50.710;14.492;2024-01-10T11:36:25;26.48;;;12.30;;
65469;SDS011;52067;50.710;14.492;2024-01-10T11:41:22;23.95;;;10.32;;
65469;SDS011;52067;50.710;14.492;2024-01-10T11:46:34;20.17;;;9.02;;
65469;SDS011;52067;50.710;14.492;2024-01-10T11:48:59;22.38;;;9.75;;
65469;SDS011;52067;50.710;14.492;2024-01-10T11:51:27;24.23;;;10.25;;
65469;SDS011;52067;50.710;14.492;2024-01-10T11:53:54;20.75;;;9.00;;
65469;SDS011;52067;50.710;14.492;2024-01-10T11:56:22;23.40;;;8.73;;
65469;SDS011;52067;50.710;14.492;2024-01-10T12:01:33;21.42;;;9.48;;
65469;SDS011;52067;50.710;14.492;2024-01-10T12:04:00;21.00;;;8.90;;
65469;SDS011;52067;50.710;14.492;2024-01-10T12:06:26;18.88;;;8.93;;
65469;SDS011;52067;50.710;14.492;2024-01-10T12:08:51;17.33;;;8.18;;
65469;SDS011;52067;50.710;14.492;2024-01-10T12:11:17;19.85;;;9.45;;
65469;SDS011;52067;50.710;14.492;2024-01-10T12:13:42;20.25;;;8.98;;
65469;SDS011;52067;50.710;14.492;2024-01-10T12:16:09;25.90;;;9.88;;
65469;SDS011;52067;50.710;14.492;2024-01-10T12:18:36;20.23;;;9.25;;
65469;SDS011;52067;50.710;14.492;2024-01-10T12:21:02;19.25;;;9.70;;
65469;SDS011;52067;50.710;14.492;2024-01-10T12:23:27;19.58;;;9.55;;
65469;SDS011;52067;50.710;14.492;2024-01-10T12:25:57;23.73;;;8.35;;
65469;SDS011;52067;50.710;14.492;2024-01-10T12:28:26;17.02;;;8.35;;
65469;SDS011;52067;50.710;14.492;2024-01-10T12:30:51;23.45;;;11.35;;
65469;SDS011;52067;50.710;14.492;2024-01-10T12:33:17;30.05;;;12.68;;
65469;SDS011;52067;50.710;14.492;2024-01-10T12:35:43;23.83;;;11.23;;
65469;SDS011;52067;50.710;14.492;2024-01-10T12:38:11;26.77;;;10.70;;
65469;SDS011;52067;50.710;14.492;2024-01-10T12:40:37;21.88;;;10.32;;
65469;SDS011;52067;50.710;14.492;2024-01-10T12:43:03;21.48;;;10.32;;
65469;SDS011;52067;50.710;14.492;2024-01-10T12:45:29;23.25;;;10.18;;
65469;SDS011;52067;50.710;14.492;2024-01-10T12:47:54;22.88;;;10.00;;
65469;SDS011;52067;50.710;14.492;2024-01-10T12:50:20;25.40;;;10.05;;
65469;SDS011;52067;50.710;14.492;2024-01-10T12:52:45;20.90;;;8.88;;
65469;SDS011;52067;50.710;14.492;2024-01-10T12:55:11;84.22;;;28.77;;
65469;SDS011;52067;50.710;14.492;2024-01-10T12:57:37;88.82;;;26.23;;
65469;SDS011;52067;50.710;14.492;2024-01-10T13:00:03;22.15;;;9.13;;
65469;SDS011;52067;50.710;14.492;2024-01-10T13:02:32;18.10;;;8.23;;
65469;SDS011;52067;50.710;14.492;2024-01-10T13:05:02;16.20;;;6.90;;
65469;SDS011;52067;50.710;14.492;2024-01-10T13:07:34;15.73;;;7.18;;
65469;SDS011;52067;50.710;14.492;2024-01-10T13:10:02;16.17;;;6.97;;
65469;SDS011;52067;50.710;14.492;2024-01-10T13:12:27;16.65;;;7.82;;
65469;SDS011;52067;50.710;14.492;2024-01-10T13:14:53;15.23;;;7.65;;
65469;SDS011;52067;50.710;14.492;2024-01-10T13:17:18;26.00;;;11.48;;
65469;SDS011;52067;50.710;14.492;2024-01-10T13:19:45;26.95;;;10.40;;
65469;SDS011;52067;50.710;14.492;2024-01-10T13:22:13;19.80;;;9.15;;
65469;SDS011;52067;50.710;14.492;2024-01-10T13:24:40;22.88;;;9.75;;
65469;SDS011;52067;50.710;14.492;2024-01-10T13:27:07;22.83;;;10.13;;
65469;SDS011;52067;50.710;14.492;2024-01-10T13:29:34;25.17;;;9.60;;
65469;SDS011;52067;50.710;14.492;2024-01-10T13:32:02;20.38;;;9.95;;
65469;SDS011;52067;50.710;14.492;2024-01-10T13:34:30;20.00;;;8.93;;
65469;SDS011;52067;50.710;14.492;2024-01-10T13:36:56;18.27;;;8.50;;
65469;SDS011;52067;50.710;14.492;2024-01-10T13:39:21;20.55;;;8.77;;
65469;SDS011;52067;50.710;14.492;2024-01-10T13:41:47;23.33;;;10.90;;
65469;SDS011;52067;50.710;14.492;2024-01-10T13:44:12;21.88;;;9.23;;
65469;SDS011;52067;50.710;14.492;2024-01-10T13:46:37;20.13;;;9.07;;
65469;SDS011;52067;50.710;14.492;2024-01-10T13:49:03;18.25;;;8.93;;
65469;SDS011;52067;50.710;14.492;2024-01-10T13:51:28;21.38;;;9.65;;
65469;SDS011;52067;50.710;14.492;2024-01-10T13:53:54;25.80;;;10.38;;
65469;SDS011;52067;50.710;14.492;2024-01-10T13:56:19;22.52;;;10.43;;
65469;SDS011;52067;50.710;14.492;2024-01-10T13:58:47;24.48;;;10.00;;
65469;SDS011;52067;50.710;14.492;2024-01-10T14:01:13;24.80;;;10.05;;
65469;SDS011;52067;50.710;14.492;2024-01-10T14:03:39;22.83;;;10.88;;
65469;SDS011;52067;50.710;14.492;2024-01-10T14:06:04;24.17;;;11.43;;
65469;SDS011;52067;50.710;14.492;2024-01-10T14:08:30;24.25;;;10.63;;
65469;SDS011;52067;50.710;14.492;2024-01-10T14:10:56;22.60;;;10.35;;
65469;SDS011;52067;50.710;14.492;2024-01-10T14:13:21;23.85;;;10.40;;
65469;SDS011;52067;50.710;14.492;2024-01-10T14:15:48;23.90;;;11.35;;
65469;SDS011;52067;50.710;14.492;2024-01-10T14:18:13;23.85;;;10.73;;